createdAt,value
2023-05-08T00:00:41.890Z,11.41
2023-05-08T00:03:09.746Z,11.39
2023-05-08T00:05:37.580Z,11.20
2023-05-08T00:08:05.981Z,11.30
2023-05-08T00:10:33.905Z,10.88
2023-05-08T00:13:03.135Z,10.69
2023-05-08T00:15:30.976Z,10.96
2023-05-08T00:17:58.772Z,11.06
2023-05-08T00:20:26.543Z,10.81
2023-05-08T00:22:54.284Z,10.83
2023-05-08T00:25:22.004Z,10.66
2023-05-08T00:27:50.759Z,10.73
2023-05-08T00:30:20.275Z,10.75
2023-05-08T00:32:48.113Z,10.62
2023-05-08T00:35:15.948Z,10.76
2023-05-08T00:37:43.774Z,11.22
2023-05-08T00:40:12.750Z,10.85
2023-05-08T00:42:40.836Z,10.70
2023-05-08T00:45:10.281Z,10.87
2023-05-08T00:47:40.011Z,10.75
2023-05-08T00:50:08.927Z,10.81
2023-05-08T00:52:36.685Z,11.11
2023-05-08T00:55:07.631Z,10.69
2023-05-08T00:57:36.645Z,10.88
2023-05-08T01:00:06.002Z,11.17
2023-05-08T01:02:34.914Z,10.73
2023-05-08T01:05:04.805Z,10.75
2023-05-08T01:07:33.337Z,11.05
2023-05-08T01:10:01.100Z,11.44
2023-05-08T01:12:35.653Z,11.14
2023-05-08T01:15:12.461Z,11.18
2023-05-08T01:18:02.107Z,11.41
2023-05-08T01:20:38.425Z,11.20
2023-05-08T01:23:54.987Z,11.13
2023-05-08T01:26:52.968Z,10.87
2023-05-08T01:29:49.037Z,10.55
2023-05-08T01:32:21.683Z,10.82
2023-05-08T01:34:58.639Z,10.83
2023-05-08T01:37:35.828Z,10.79
2023-05-08T01:40:14.059Z,10.66
2023-05-08T01:42:57.721Z,11.10
2023-05-08T01:45:31.623Z,10.79
2023-05-08T01:48:06.642Z,10.75
2023-05-08T01:50:39.451Z,10.55
2023-05-08T01:53:14.508Z,10.59
2023-05-08T01:55:45.096Z,10.76
2023-05-08T01:58:13.728Z,10.59
2023-05-08T02:00:44.148Z,10.47
2023-05-08T02:03:15.818Z,10.80
2023-05-08T02:05:45.517Z,10.77
2023-05-08T02:08:15.840Z,10.52
2023-05-08T02:10:46.113Z,10.36
2023-05-08T02:13:19.092Z,10.36
2023-05-08T02:15:50.078Z,10.64
2023-05-08T02:18:22.543Z,9.99
2023-05-08T02:20:52.118Z,10.35
2023-05-08T02:23:21.765Z,10.50
2023-05-08T02:25:50.260Z,10.59
2023-05-08T02:28:19.030Z,10.40
2023-05-08T02:30:48.386Z,10.33
2023-05-08T02:33:17.782Z,10.34
2023-05-08T02:35:49.313Z,10.68
2023-05-08T02:38:20.792Z,10.15
2023-05-08T02:40:50.958Z,10.40
2023-05-08T02:43:18.841Z,9.75
2023-05-08T02:45:50.887Z,9.45
2023-05-08T02:48:24.923Z,10.06
2023-05-08T02:51:00.426Z,10.33
2023-05-08T02:53:35.451Z,10.25
2023-05-08T02:56:11.038Z,10.56
2023-05-08T02:58:45.536Z,10.33
2023-05-08T03:01:21.428Z,10.39
2023-05-08T03:04:00.803Z,10.34
2023-05-08T03:06:36.889Z,10.08
2023-05-08T03:09:07.023Z,10.11
2023-05-08T03:11:41.548Z,10.14
2023-05-08T03:14:12.493Z,10.48
2023-05-08T03:16:44.127Z,10.08
2023-05-08T03:19:18.042Z,10.45
2023-05-08T03:21:47.958Z,10.55
2023-05-08T03:24:18.571Z,9.89
2023-05-08T03:26:47.055Z,9.86
2023-05-08T03:29:17.628Z,10.22
2023-05-08T03:31:46.166Z,9.83
2023-05-08T03:34:16.287Z,10.09
2023-05-08T03:36:45.069Z,9.29
2023-05-08T03:39:14.450Z,10.04
2023-05-08T03:41:42.229Z,10.26
2023-05-08T03:44:10.678Z,10.30
2023-05-08T03:46:40.000Z,10.35
2023-05-08T03:49:09.918Z,10.06
2023-05-08T03:51:39.797Z,10.03
2023-05-08T03:54:07.583Z,9.95
2023-05-08T03:56:36.703Z,10.21
2023-05-08T03:59:12.988Z,10.30
2023-05-08T04:01:42.871Z,10.00
2023-05-08T04:04:15.242Z,9.97
2023-05-08T04:06:51.070Z,9.80
2023-05-08T04:09:25.153Z,10.40
2023-05-08T04:12:03.449Z,10.28
2023-05-08T04:14:36.025Z,10.37
2023-05-08T04:17:07.333Z,10.24
2023-05-08T04:19:39.369Z,9.88
2023-05-08T04:22:09.541Z,10.25
2023-05-08T04:24:42.984Z,10.05
2023-05-08T04:27:13.674Z,10.07
2023-05-08T04:29:41.648Z,10.33
2023-05-08T04:32:11.367Z,10.67
2023-05-08T04:34:39.646Z,10.20
2023-05-08T04:37:08.019Z,10.57
2023-05-08T04:39:35.765Z,10.48
2023-05-08T04:42:04.813Z,10.14
2023-05-08T04:44:34.042Z,10.30
2023-05-08T04:47:01.786Z,10.19
2023-05-08T04:49:29.496Z,10.05
2023-05-08T04:51:59.156Z,10.75
2023-05-08T04:54:26.969Z,10.26
2023-05-08T04:56:54.731Z,10.29
2023-05-08T04:59:22.877Z,10.69
2023-05-08T05:01:52.030Z,10.18
2023-05-08T05:04:19.900Z,10.95
2023-05-08T05:06:47.688Z,10.81
2023-05-08T05:09:16.127Z,11.05
2023-05-08T05:11:43.904Z,10.43
2023-05-08T05:14:11.679Z,10.99
2023-05-08T05:16:39.498Z,10.47
2023-05-08T05:19:08.656Z,10.73
2023-05-08T05:21:37.960Z,10.58
2023-05-08T05:24:06.822Z,10.70
2023-05-08T05:26:36.784Z,11.18
2023-05-08T05:29:04.806Z,10.98
2023-05-08T05:31:32.611Z,10.78
2023-05-08T05:34:00.600Z,11.29
2023-05-08T05:36:29.752Z,11.20
2023-05-08T05:38:57.653Z,11.31
2023-05-08T05:41:25.899Z,11.42
2023-05-08T05:43:53.653Z,11.62
2023-05-08T05:46:21.494Z,11.49
2023-05-08T05:48:49.335Z,11.34
2023-05-08T05:51:17.057Z,11.35
2023-05-08T05:53:46.288Z,11.84
2023-05-08T05:56:14.051Z,11.73
2023-05-08T05:58:44.933Z,11.59
2023-05-08T06:01:13.086Z,11.61
2023-05-08T06:03:40.914Z,11.58
2023-05-08T06:06:09.119Z,11.93
2023-05-08T06:08:36.850Z,11.73
2023-05-08T06:11:06.201Z,11.61
2023-05-08T06:13:34.057Z,12.23
2023-05-08T06:16:01.882Z,12.19
2023-05-08T06:18:29.882Z,11.99
2023-05-08T06:20:58.653Z,12.00
2023-05-08T06:23:26.939Z,12.12
2023-05-08T06:25:54.807Z,12.36
2023-05-08T06:28:25.971Z,12.51
2023-05-08T06:30:54.204Z,12.09
2023-05-08T06:33:22.844Z,12.33
2023-05-08T06:35:51.669Z,12.62
2023-05-08T06:38:19.777Z,12.62
2023-05-08T06:40:50.069Z,12.34
2023-05-08T06:43:17.963Z,12.55
2023-05-08T06:45:47.111Z,12.52
2023-05-08T06:48:14.959Z,12.44
2023-05-08T06:50:43.336Z,12.19
2023-05-08T06:53:11.149Z,12.99
2023-05-08T06:55:39.040Z,13.29
2023-05-08T06:58:06.771Z,12.51
2023-05-08T07:00:34.581Z,13.20
2023-05-08T07:03:04.024Z,12.78
2023-05-08T07:05:31.858Z,13.54
2023-05-08T07:07:59.643Z,12.95
2023-05-08T07:10:27.399Z,12.90
2023-05-08T07:12:55.262Z,13.16
2023-05-08T07:15:26.514Z,13.80
2023-05-08T07:17:55.166Z,13.27
2023-05-08T07:20:24.695Z,13.90
2023-05-08T07:22:52.614Z,13.72
2023-05-08T07:25:20.572Z,13.53
2023-05-08T07:27:48.495Z,13.70
2023-05-08T07:30:16.776Z,13.88
2023-05-08T07:32:44.650Z,13.74
2023-05-08T07:35:13.874Z,13.51
2023-05-08T07:37:43.138Z,13.72
2023-05-08T07:40:11.581Z,14.05
2023-05-08T07:42:40.700Z,13.76
2023-05-08T07:45:09.932Z,13.90
2023-05-08T07:47:37.721Z,14.43
2023-05-08T07:50:06.070Z,14.78
2023-05-08T07:52:33.791Z,14.02
2023-05-08T07:55:02.919Z,14.03
2023-05-08T07:57:37.463Z,14.71
2023-05-08T08:00:06.061Z,14.29
2023-05-08T08:02:34.101Z,14.62
2023-05-08T08:05:02.090Z,14.54
2023-05-08T08:07:29.854Z,14.23
2023-05-08T08:09:57.576Z,14.37
2023-05-08T08:12:26.988Z,14.78
2023-05-08T08:14:54.767Z,14.47
2023-05-08T08:17:22.909Z,14.47
2023-05-08T08:19:50.901Z,15.08
2023-05-08T08:22:18.728Z,14.21
2023-05-08T08:24:46.512Z,14.98
2023-05-08T08:27:14.708Z,15.21
2023-05-08T08:29:43.877Z,15.70
2023-05-08T08:32:11.597Z,15.50
2023-05-08T08:34:39.516Z,15.10
2023-05-08T08:37:07.583Z,14.97
2023-05-08T08:39:35.663Z,15.55
2023-05-08T08:42:03.586Z,15.17
2023-05-08T08:44:31.329Z,15.57
2023-05-08T08:47:01.684Z,15.13
2023-05-08T08:49:32.296Z,15.69
2023-05-08T08:52:03.199Z,15.52
2023-05-08T08:54:34.710Z,16.36
2023-05-08T08:57:07.104Z,15.23
2023-05-08T08:59:35.422Z,15.58
2023-05-08T09:02:11.500Z,15.88
2023-05-08T09:04:39.689Z,15.69
2023-05-08T09:07:08.664Z,15.60
2023-05-08T09:09:37.679Z,15.92
2023-05-08T09:12:06.233Z,16.81
2023-05-08T09:14:34.312Z,17.04
2023-05-08T09:17:02.326Z,17.45
2023-05-08T09:19:32.533Z,16.98
2023-05-08T09:22:01.568Z,17.06
2023-05-08T09:24:57.109Z,17.59
2023-05-08T09:27:26.173Z,16.70
2023-05-08T09:30:01.998Z,16.99
2023-05-08T09:32:30.406Z,16.57
2023-05-08T09:34:59.976Z,16.32
2023-05-08T09:37:28.941Z,17.94
2023-05-08T09:40:14.556Z,17.64
2023-05-08T09:42:42.436Z,17.57
2023-05-08T09:45:11.344Z,18.13
2023-05-08T09:47:40.127Z,17.22
2023-05-08T09:50:11.780Z,17.88
2023-05-08T09:52:40.700Z,17.88
2023-05-08T09:55:10.229Z,17.89
2023-05-08T09:57:39.626Z,18.20
2023-05-08T10:00:10.378Z,18.60
2023-05-08T10:02:40.291Z,18.48
2023-05-08T10:05:26.235Z,19.57
2023-05-08T10:07:54.371Z,18.78
2023-05-08T10:10:30.635Z,19.45
2023-05-08T10:12:59.545Z,20.10
2023-05-08T10:15:32.267Z,20.06
2023-05-08T10:18:05.492Z,20.25
2023-05-08T10:20:35.801Z,20.48
2023-05-08T10:23:05.623Z,19.73
2023-05-08T10:25:36.410Z,19.90
2023-05-08T10:28:12.333Z,20.26
2023-05-08T10:30:48.646Z,20.62
2023-05-08T10:33:18.359Z,20.65
2023-05-08T10:35:49.152Z,21.10
2023-05-08T10:38:17.940Z,20.19
2023-05-08T10:40:46.139Z,19.88
2023-05-08T10:43:14.354Z,20.28
2023-05-08T10:45:42.994Z,20.62
2023-05-08T10:48:22.547Z,20.92
2023-05-08T10:51:02.036Z,20.48
2023-05-08T10:53:36.092Z,20.61
2023-05-08T10:56:04.273Z,21.60
2023-05-08T10:58:33.350Z,21.04
2023-05-08T11:01:15.870Z,21.54
2023-05-08T11:03:50.469Z,21.37
2023-05-08T11:06:43.856Z,22.54
2023-05-08T11:09:16.289Z,21.83
2023-05-08T11:11:56.196Z,22.16
2023-05-08T11:14:24.808Z,22.25
2023-05-08T11:17:06.502Z,20.84
2023-05-08T11:19:34.530Z,21.85
2023-05-08T11:22:24.554Z,21.17
2023-05-08T11:24:56.473Z,21.36
2023-05-08T11:28:05.448Z,21.54
2023-05-08T11:30:38.734Z,22.21
2023-05-08T11:33:17.397Z,22.10
2023-05-08T11:35:51.418Z,22.60
2023-05-08T11:38:28.793Z,23.08
2023-05-08T11:40:59.169Z,22.57
2023-05-08T11:43:53.115Z,22.32
2023-05-08T11:46:22.680Z,23.49
2023-05-08T11:48:50.587Z,22.89
2023-05-08T11:51:20.386Z,21.69
2023-05-08T11:53:49.617Z,21.98
2023-05-08T11:56:17.447Z,21.74
2023-05-08T11:58:45.213Z,21.90
2023-05-08T12:01:18.500Z,22.19
2023-05-08T12:03:46.425Z,21.65
2023-05-08T12:06:15.460Z,23.89
2023-05-08T12:08:43.342Z,23.21
2023-05-08T12:11:12.514Z,22.06
2023-05-08T12:13:40.517Z,22.11
2023-05-08T12:16:08.356Z,22.55
2023-05-08T12:21:04.100Z,23.10
2023-05-08T12:23:31.975Z,24.04
2023-05-08T12:26:01.394Z,23.19
2023-05-08T12:28:32.258Z,23.52
2023-05-08T12:31:00.182Z,23.87
2023-05-08T12:33:28.739Z,22.62
2023-05-08T12:35:56.948Z,22.87
2023-05-08T12:38:27.797Z,22.40
2023-05-08T12:40:56.577Z,22.78
2023-05-08T12:43:34.484Z,22.88
2023-05-08T12:46:02.894Z,23.19
2023-05-08T12:48:31.167Z,23.06
2023-05-08T12:51:04.753Z,23.50
2023-05-08T12:53:34.119Z,24.37
2023-05-08T12:56:04.166Z,24.15
2023-05-08T12:58:34.523Z,24.11
2023-05-08T13:01:12.999Z,24.24
2023-05-08T13:03:42.030Z,23.53
2023-05-08T13:06:21.111Z,23.13
2023-05-08T13:08:55.183Z,23.57
2023-05-08T13:11:30.662Z,23.25
2023-05-08T13:13:59.935Z,24.95
2023-05-08T13:16:27.864Z,24.43
2023-05-08T13:18:55.674Z,23.54
2023-05-08T13:21:25.106Z,23.59
2023-05-08T13:23:54.274Z,24.41
2023-05-08T13:26:22.307Z,23.64
2023-05-08T13:28:50.013Z,22.87
2023-05-08T13:31:19.176Z,24.10
2023-05-08T13:33:46.899Z,24.44
2023-05-08T13:36:14.640Z,24.05
2023-05-08T13:38:42.389Z,22.80
2023-05-08T13:41:10.163Z,24.29
2023-05-08T13:43:37.940Z,24.32
2023-05-08T13:46:07.048Z,24.07
2023-05-08T13:48:45.379Z,23.99
2023-05-08T13:51:13.112Z,24.63
2023-05-08T13:53:40.868Z,23.90
2023-05-08T13:56:08.852Z,24.18
2023-05-08T13:58:36.622Z,24.89
2023-05-08T14:01:17.602Z,23.32
2023-05-08T14:03:51.592Z,23.89
2023-05-08T14:06:20.547Z,23.57
2023-05-08T14:08:50.977Z,23.25
2023-05-08T14:11:20.039Z,23.88
2023-05-08T14:13:47.750Z,24.51
2023-05-08T14:16:16.283Z,22.94
2023-05-08T14:18:46.514Z,24.61
2023-05-08T14:21:15.604Z,25.35
2023-05-08T14:23:44.594Z,24.09
2023-05-08T14:26:12.417Z,24.37
2023-05-08T14:28:40.185Z,23.29
2023-05-08T14:31:08.006Z,24.24
2023-05-08T14:33:35.793Z,24.87
2023-05-08T14:36:03.623Z,23.06
2023-05-08T14:38:32.725Z,24.15
2023-05-08T14:41:04.330Z,24.93
2023-05-08T14:43:32.592Z,24.37
2023-05-08T14:46:00.421Z,25.42
2023-05-08T14:48:28.439Z,24.08
2023-05-08T14:50:57.248Z,24.07
2023-05-08T14:53:25.193Z,24.12
2023-05-08T14:55:54.712Z,24.23
2023-05-08T14:58:22.761Z,23.79
2023-05-08T15:00:50.673Z,23.13
2023-05-08T15:03:18.767Z,23.06
2023-05-08T15:05:47.179Z,24.05
2023-05-08T15:08:15.100Z,23.95
2023-05-08T15:10:42.864Z,24.80
2023-05-08T15:13:12.303Z,24.45
2023-05-08T15:15:40.094Z,24.71
2023-05-08T15:18:07.900Z,24.80
2023-05-08T15:20:35.691Z,24.05
2023-05-08T15:23:03.477Z,24.09
2023-05-08T15:25:31.209Z,24.38
2023-05-08T15:28:00.818Z,23.48
2023-05-08T15:30:30.501Z,25.29
2023-05-08T15:32:58.310Z,23.79
2023-05-08T15:35:26.567Z,23.72
2023-05-08T15:37:54.302Z,23.91
2023-05-08T15:40:22.211Z,23.29
2023-05-08T15:42:50.053Z,24.16
2023-05-08T15:45:17.822Z,24.16
2023-05-08T15:47:46.910Z,23.87
2023-05-08T15:50:15.725Z,24.37
2023-05-08T15:52:43.661Z,24.50
2023-05-08T15:55:11.631Z,24.59
2023-05-08T15:57:39.900Z,22.98
2023-05-08T16:00:09.034Z,23.55
2023-05-08T16:02:36.888Z,23.62
2023-05-08T16:05:06.590Z,23.65
2023-05-08T16:07:34.315Z,23.77
2023-05-08T16:10:02.148Z,23.76
2023-05-08T16:12:29.954Z,24.38
2023-05-08T16:14:57.917Z,22.96
2023-05-08T16:17:25.830Z,23.55
2023-05-08T16:19:53.567Z,24.53
2023-05-08T16:22:23.181Z,24.11
2023-05-08T16:24:53.827Z,23.62
2023-05-08T16:27:21.720Z,24.23
2023-05-08T16:29:49.456Z,23.69
2023-05-08T16:32:17.296Z,23.98
2023-05-08T16:34:45.023Z,23.34
2023-05-08T16:37:12.878Z,23.09
2023-05-08T16:39:41.982Z,22.73
2023-05-08T16:42:10.137Z,23.29
2023-05-08T16:44:37.990Z,23.11
2023-05-08T16:47:05.905Z,23.60
2023-05-08T16:49:33.740Z,22.81
2023-05-08T16:52:01.510Z,23.23
2023-05-08T16:54:29.251Z,23.17
2023-05-08T16:56:58.391Z,23.02
2023-05-08T16:59:26.296Z,22.67
2023-05-08T17:01:54.183Z,22.36
2023-05-08T17:04:22.016Z,22.13
2023-05-08T17:06:49.953Z,22.80
2023-05-08T17:09:18.476Z,22.09
2023-05-08T17:11:46.247Z,22.73
2023-05-08T17:14:15.621Z,22.20
2023-05-08T17:16:43.499Z,22.84
2023-05-08T17:19:11.478Z,21.83
2023-05-08T17:21:39.248Z,22.73
2023-05-08T17:24:07.708Z,21.92
2023-05-08T17:26:35.540Z,22.04
2023-05-08T17:29:03.429Z,21.56
2023-05-08T17:31:32.566Z,21.56
2023-05-08T17:34:00.374Z,22.07
2023-05-08T17:36:28.187Z,21.46
2023-05-08T17:38:56.468Z,22.13
2023-05-08T17:41:24.206Z,21.95
2023-05-08T17:43:53.391Z,22.11
2023-05-08T17:46:21.313Z,21.36
2023-05-08T17:48:50.585Z,20.83
2023-05-08T17:51:18.356Z,21.46
2023-05-08T17:53:46.123Z,21.79
2023-05-08T17:56:15.552Z,21.17
2023-05-08T17:58:43.529Z,21.38
2023-05-08T18:01:11.378Z,20.78
2023-05-08T18:03:39.242Z,20.83
2023-05-08T18:06:08.783Z,20.48
2023-05-08T18:08:36.739Z,20.42
2023-05-08T18:11:04.489Z,20.66
2023-05-08T18:13:33.022Z,21.16
2023-05-08T18:16:00.919Z,20.96
2023-05-08T18:18:29.170Z,20.30
2023-05-08T18:20:56.956Z,19.75
2023-05-08T18:23:26.123Z,19.38
2023-05-08T18:25:53.906Z,19.53
2023-05-08T18:28:21.688Z,19.70
2023-05-08T18:30:49.443Z,19.39
2023-05-08T18:33:17.193Z,19.32
2023-05-08T18:35:45.084Z,18.85
2023-05-08T18:38:13.233Z,18.85
2023-05-08T18:40:42.594Z,18.93
2023-05-08T18:43:10.350Z,18.58
2023-05-08T18:45:39.339Z,18.36
2023-05-08T18:48:07.342Z,18.32
2023-05-08T18:50:35.150Z,18.02
2023-05-08T18:53:03.154Z,18.29
2023-05-08T18:55:30.936Z,18.05
2023-05-08T18:58:00.154Z,17.77
2023-05-08T19:00:28.465Z,17.95
2023-05-08T19:02:56.340Z,17.61
2023-05-08T19:05:24.436Z,17.63
2023-05-08T19:07:52.182Z,17.74
2023-05-08T19:10:19.929Z,17.55
2023-05-08T19:12:47.853Z,17.49
2023-05-08T19:15:17.377Z,17.54
2023-05-08T19:17:45.259Z,17.25
2023-05-08T19:20:14.762Z,17.37
2023-05-08T19:22:42.903Z,17.24
2023-05-08T19:25:12.655Z,17.38
2023-05-08T19:27:40.769Z,17.10
2023-05-08T19:30:09.735Z,17.40
2023-05-08T19:32:38.902Z,17.25
2023-05-08T19:35:08.241Z,16.87
2023-05-08T19:37:36.733Z,17.43
2023-05-08T19:40:05.031Z,16.80
2023-05-08T19:42:32.998Z,17.00
2023-05-08T19:45:01.346Z,17.52
2023-05-08T19:47:29.220Z,16.77
2023-05-08T19:49:58.383Z,16.76
2023-05-08T19:52:26.140Z,16.73
2023-05-08T19:54:53.893Z,16.65
2023-05-08T19:57:21.936Z,16.71
2023-05-08T19:59:49.713Z,16.44
2023-05-08T20:02:17.495Z,16.10
2023-05-08T20:05:10.438Z,16.21
2023-05-08T20:07:34.295Z,16.33
2023-05-08T20:10:02.263Z,15.83
2023-05-08T20:12:30.063Z,16.39
2023-05-08T20:14:57.793Z,16.03
2023-05-08T20:17:25.562Z,16.05
2023-05-08T20:19:53.362Z,15.90
2023-05-08T20:22:21.253Z,15.73
2023-05-08T20:24:50.400Z,15.76
2023-05-08T20:27:18.202Z,15.53
2023-05-08T20:29:46.759Z,15.44
2023-05-08T20:32:16.423Z,15.30
2023-05-08T20:34:45.105Z,15.26
2023-05-08T20:37:12.987Z,15.13
2023-05-08T20:39:40.740Z,15.40
2023-05-08T20:42:09.825Z,15.38
2023-05-08T20:44:37.590Z,15.50
2023-05-08T20:47:05.651Z,15.04
2023-05-08T20:49:33.429Z,15.47
2023-05-08T20:52:01.254Z,15.25
2023-05-08T20:54:30.406Z,14.87
2023-05-08T20:57:00.519Z,15.16
2023-05-08T20:59:29.626Z,14.84
2023-05-08T21:01:57.408Z,15.35
2023-05-08T21:04:25.301Z,15.18
2023-05-08T21:06:53.173Z,15.21
2023-05-08T21:09:20.944Z,14.85
2023-05-08T21:11:48.698Z,14.79
2023-05-08T21:14:16.453Z,14.96
2023-05-08T21:16:46.104Z,14.52
2023-05-08T21:19:17.348Z,14.51
2023-05-08T21:21:45.157Z,14.73
2023-05-08T21:24:12.974Z,14.47
2023-05-08T21:26:41.047Z,14.21
2023-05-08T21:29:10.698Z,14.52
2023-05-08T21:31:38.648Z,14.51
2023-05-08T21:34:07.971Z,14.35
2023-05-08T21:36:35.693Z,14.40
2023-05-08T21:39:04.157Z,14.20
2023-05-08T21:41:32.987Z,14.36
2023-05-08T21:44:00.841Z,14.36
2023-05-08T21:46:28.796Z,14.14
2023-05-08T21:48:56.690Z,13.98
2023-05-08T21:51:25.833Z,14.15
2023-05-08T21:53:53.940Z,14.00
2023-05-08T21:56:22.793Z,14.08
2023-05-08T21:58:51.046Z,14.28
2023-05-08T22:01:18.819Z,14.27
2023-05-08T22:03:46.750Z,13.86
2023-05-08T22:06:14.636Z,14.37
2023-05-08T22:08:43.735Z,14.08
2023-05-08T22:11:11.475Z,13.77
2023-05-08T22:13:39.219Z,14.16
2023-05-08T22:16:08.216Z,13.77
2023-05-08T22:18:36.268Z,14.14
2023-05-08T22:21:04.109Z,14.49
2023-05-08T22:23:33.915Z,13.90
2023-05-08T22:26:03.099Z,13.85
2023-05-08T22:28:30.834Z,14.05
2023-05-08T22:30:58.587Z,13.84
2023-05-08T22:33:26.331Z,14.18
2023-05-08T22:35:54.116Z,13.73
2023-05-08T22:38:21.859Z,13.53
2023-05-08T22:40:49.626Z,14.03
2023-05-08T22:43:18.900Z,13.83
2023-05-08T22:45:46.695Z,13.35
2023-05-08T22:48:14.527Z,13.34
2023-05-08T22:50:42.295Z,13.29
2023-05-08T22:53:10.658Z,13.22
2023-05-08T22:55:38.825Z,13.46
2023-05-08T22:58:06.588Z,13.24
2023-05-08T23:00:35.772Z,13.25
2023-05-08T23:03:03.559Z,13.04
2023-05-08T23:05:31.396Z,13.13
2023-05-08T23:07:59.153Z,13.11
2023-05-08T23:10:26.872Z,13.32
2023-05-08T23:12:54.750Z,13.02
2023-05-08T23:15:22.523Z,13.30
2023-05-08T23:17:51.706Z,12.85
2023-05-08T23:20:19.592Z,13.07
2023-05-08T23:22:47.338Z,13.15
2023-05-08T23:25:15.318Z,13.05
2023-05-08T23:27:43.343Z,12.90
2023-05-08T23:30:13.320Z,13.19
2023-05-08T23:32:41.366Z,13.06
2023-05-08T23:35:11.516Z,12.79
2023-05-08T23:37:39.619Z,13.15
2023-05-08T23:40:08.918Z,12.88
2023-05-08T23:42:37.198Z,12.86
2023-05-08T23:45:06.513Z,12.74
2023-05-08T23:47:34.279Z,13.06
2023-05-08T23:50:02.113Z,13.06
2023-05-08T23:52:31.210Z,12.92
2023-05-08T23:54:58.966Z,12.64
2023-05-08T23:57:26.708Z,13.00
2023-05-08T23:59:54.466Z,12.64
